createdAt,value
2022-08-04T00:00:40.518Z,25.30
2022-08-04T00:03:14.421Z,25.30
2022-08-04T00:05:48.571Z,25.30
2022-08-04T00:08:19.871Z,25.20
2022-08-04T00:10:50.244Z,25.20
2022-08-04T00:13:23.039Z,25.10
2022-08-04T00:15:52.486Z,25.10
2022-08-04T00:18:22.659Z,25.00
2022-08-04T00:20:51.554Z,25.00
2022-08-04T00:23:19.472Z,25.00
2022-08-04T00:25:47.221Z,25.00
2022-08-04T00:28:14.946Z,25.00
2022-08-04T00:30:44.035Z,25.00
2022-08-04T00:33:11.808Z,25.00
2022-08-04T00:35:39.660Z,25.10
2022-08-04T00:38:07.679Z,25.10
2022-08-04T00:40:39.510Z,25.10
2022-08-04T00:43:11.268Z,25.00
2022-08-04T00:46:10.970Z,25.10
2022-08-04T00:48:42.944Z,25.00
2022-08-04T00:51:16.026Z,25.00
2022-08-04T00:53:50.159Z,25.00
2022-08-04T00:56:34.940Z,25.00
2022-08-04T00:59:05.074Z,25.00
2022-08-04T01:01:45.447Z,25.00
2022-08-04T01:04:22.449Z,25.00
2022-08-04T01:07:00.136Z,25.10
2022-08-04T01:09:31.878Z,25.10
2022-08-04T01:12:08.988Z,25.10
2022-08-04T01:14:45.163Z,25.10
2022-08-04T01:17:22.286Z,25.00
2022-08-04T01:20:05.986Z,25.00
2022-08-04T01:22:49.077Z,25.00
2022-08-04T01:25:31.885Z,24.90
2022-08-04T01:28:16.125Z,24.90
2022-08-04T01:30:46.954Z,24.90
2022-08-04T01:33:15.510Z,24.90
2022-08-04T01:35:48.548Z,24.80
2022-08-04T01:38:21.359Z,24.80
2022-08-04T01:40:52.786Z,24.80
2022-08-04T01:43:21.141Z,24.70
2022-08-04T01:45:50.968Z,24.70
2022-08-04T01:48:19.305Z,24.60
2022-08-04T01:50:47.046Z,24.60
2022-08-04T01:53:20.998Z,24.60
2022-08-04T01:55:54.307Z,24.60
2022-08-04T01:58:24.902Z,24.50
2022-08-04T02:00:59.712Z,24.50
2022-08-04T02:04:18.089Z,24.60
2022-08-04T02:06:24.399Z,24.60
2022-08-04T02:08:54.995Z,24.60
2022-08-04T02:11:23.626Z,24.50
2022-08-04T02:13:55.163Z,24.50
2022-08-04T02:16:30.146Z,24.50
2022-08-04T02:19:02.500Z,24.60
2022-08-04T02:21:42.240Z,24.50
2022-08-04T02:24:14.967Z,24.50
2022-08-04T02:26:43.982Z,24.60
2022-08-04T02:29:14.620Z,24.50
2022-08-04T02:31:47.870Z,24.40
2022-08-04T02:34:18.355Z,24.50
2022-08-04T02:36:46.618Z,24.50
2022-08-04T02:39:16.769Z,24.40
2022-08-04T02:41:44.889Z,24.30
2022-08-04T02:44:12.651Z,24.30
2022-08-04T02:46:42.314Z,24.20
2022-08-04T02:49:11.620Z,24.20
2022-08-04T02:51:42.230Z,24.10
2022-08-04T02:54:10.322Z,24.10
2022-08-04T02:56:39.075Z,24.10
2022-08-04T02:59:07.912Z,24.10
2022-08-04T03:01:35.951Z,24.20
2022-08-04T03:04:24.334Z,24.20
2022-08-04T03:07:19.976Z,24.30
2022-08-04T03:10:04.796Z,24.30
2022-08-04T03:12:48.771Z,24.30
2022-08-04T03:15:43.496Z,24.20
2022-08-04T03:18:38.018Z,24.10
2022-08-04T03:21:23.738Z,24.20
2022-08-04T03:24:12.932Z,24.10
2022-08-04T03:26:55.143Z,24.00
2022-08-04T03:29:46.921Z,24.00
2022-08-04T03:32:28.524Z,23.90
2022-08-04T03:35:23.062Z,24.00
2022-08-04T03:38:05.893Z,23.90
2022-08-04T03:40:37.125Z,23.90
2022-08-04T03:43:56.960Z,23.80
2022-08-04T03:46:30.525Z,23.90
2022-08-04T03:49:11.106Z,24.00
2022-08-04T03:52:01.009Z,24.00
2022-08-04T03:54:47.235Z,24.10
2022-08-04T03:57:29.543Z,24.00
2022-08-04T04:00:09.926Z,24.10
2022-08-04T04:02:57.133Z,24.00
2022-08-04T04:05:58.695Z,24.10
2022-08-04T04:08:42.541Z,24.10
2022-08-04T04:11:24.339Z,24.10
2022-08-04T04:14:06.938Z,24.10
2022-08-04T04:16:44.888Z,24.10
2022-08-04T04:19:24.227Z,24.10
2022-08-04T04:22:16.471Z,24.10
2022-08-04T04:24:50.073Z,24.10
2022-08-04T04:27:23.689Z,23.90
2022-08-04T04:30:01.384Z,23.80
2022-08-04T04:32:40.291Z,23.80
2022-08-04T04:35:15.707Z,23.70
2022-08-04T04:37:51.948Z,23.70
2022-08-04T04:40:33.609Z,23.70
2022-08-04T04:43:12.526Z,23.70
2022-08-04T04:45:43.767Z,23.70
2022-08-04T04:48:17.467Z,23.70
2022-08-04T04:50:54.244Z,23.70
2022-08-04T04:53:25.358Z,23.60
2022-08-04T04:55:56.966Z,23.50
2022-08-04T04:58:25.014Z,23.50
2022-08-04T05:01:09.536Z,23.40
2022-08-04T05:03:55.164Z,23.40
2022-08-04T05:06:29.968Z,23.40
2022-08-04T05:09:12.389Z,23.40
2022-08-04T05:11:47.064Z,23.50
2022-08-04T05:14:36.357Z,23.50
2022-08-04T05:17:07.643Z,23.60
2022-08-04T05:19:44.761Z,23.60
2022-08-04T05:22:25.484Z,23.70
2022-08-04T05:24:55.263Z,23.80
2022-08-04T05:27:24.953Z,23.90
2022-08-04T05:29:53.957Z,23.90
2022-08-04T05:32:25.056Z,23.90
2022-08-04T05:34:55.245Z,23.90
2022-08-04T05:37:24.828Z,23.90
2022-08-04T05:39:59.306Z,24.00
2022-08-04T05:42:28.245Z,24.00
2022-08-04T05:44:56.454Z,24.10
2022-08-04T05:47:25.238Z,24.20
2022-08-04T05:49:55.608Z,24.30
2022-08-04T05:52:32.090Z,24.40
2022-08-04T05:55:00.336Z,24.50
2022-08-04T05:57:28.842Z,24.60
2022-08-04T05:59:58.162Z,24.60
2022-08-04T06:02:26.477Z,24.70
2022-08-04T06:04:54.776Z,24.70
2022-08-04T06:07:23.084Z,24.80
2022-08-04T06:09:52.243Z,24.90
2022-08-04T06:12:22.763Z,25.00
2022-08-04T06:14:52.953Z,25.00
2022-08-04T06:18:33.651Z,25.20
2022-08-04T06:20:20.366Z,25.30
2022-08-04T06:22:53.855Z,25.50
2022-08-04T06:25:24.179Z,25.60
2022-08-04T06:27:52.595Z,25.80
2022-08-04T06:30:20.921Z,25.90
2022-08-04T06:33:03.814Z,25.90
2022-08-04T06:35:33.876Z,26.00
2022-08-04T06:38:02.894Z,26.10
2022-08-04T06:40:34.065Z,26.20
2022-08-04T06:43:03.114Z,26.30
2022-08-04T06:45:32.071Z,26.50
2022-08-04T06:48:00.932Z,26.60
2022-08-04T06:51:29.623Z,26.70
2022-08-04T06:53:16.919Z,26.80
2022-08-04T06:55:46.623Z,26.80
2022-08-04T06:58:15.262Z,26.90
2022-08-04T07:00:44.251Z,27.00
2022-08-04T07:03:12.516Z,27.10
2022-08-04T07:05:41.267Z,27.20
2022-08-04T07:08:10.942Z,27.30
2022-08-04T07:10:39.046Z,27.40
2022-08-04T07:13:09.419Z,27.40
2022-08-04T07:15:37.839Z,27.60
2022-08-04T07:18:05.647Z,27.60
2022-08-04T07:20:36.238Z,27.70
2022-08-04T07:23:05.087Z,27.70
2022-08-04T07:25:58.566Z,27.80
2022-08-04T07:28:24.767Z,27.90
2022-08-04T07:30:53.554Z,28.00
2022-08-04T07:33:21.395Z,28.10
2022-08-04T07:36:10.758Z,28.40
2022-08-04T07:38:48.095Z,28.60
2022-08-04T07:41:36.645Z,28.70
2022-08-04T07:44:06.282Z,28.80
2022-08-04T07:46:34.024Z,28.90
2022-08-04T07:49:01.982Z,28.90
2022-08-04T07:51:30.588Z,29.10
2022-08-04T07:53:58.748Z,29.20
2022-08-04T07:56:27.118Z,29.40
2022-08-04T07:58:55.153Z,29.60
2022-08-04T08:01:24.505Z,29.80
2022-08-04T08:03:53.732Z,29.80
2022-08-04T08:06:30.735Z,29.90
2022-08-04T08:09:02.315Z,30.00
2022-08-04T08:12:36.161Z,30.10
2022-08-04T08:14:31.407Z,30.10
2022-08-04T08:17:02.395Z,30.00
2022-08-04T08:19:30.465Z,30.10
2022-08-04T08:22:00.494Z,30.30
2022-08-04T08:24:29.543Z,30.50
2022-08-04T08:26:57.764Z,30.80
2022-08-04T08:29:26.646Z,31.10
2022-08-04T08:31:57.279Z,31.40
2022-08-04T08:34:28.970Z,31.70
2022-08-04T08:37:00.730Z,31.70
2022-08-04T08:39:30.188Z,31.70
2022-08-04T08:42:18.395Z,31.80
2022-08-04T08:45:04.866Z,32.00
2022-08-04T08:47:58.504Z,32.00
2022-08-04T08:50:38.254Z,32.20
2022-08-04T08:53:15.195Z,32.10
2022-08-04T08:55:47.378Z,32.20
2022-08-04T08:58:24.221Z,32.40
2022-08-04T09:00:54.628Z,32.60
2022-08-04T09:03:40.079Z,32.50
2022-08-04T09:06:18.646Z,32.70
2022-08-04T09:09:01.803Z,32.90
2022-08-04T09:11:33.766Z,33.30
2022-08-04T09:14:02.450Z,33.30
2022-08-04T09:16:36.288Z,33.30
2022-08-04T09:19:07.261Z,33.40
2022-08-04T09:21:40.474Z,33.60
2022-08-04T09:24:36.819Z,34.10
2022-08-04T09:27:00.983Z,34.50
2022-08-04T09:29:35.226Z,34.60
2022-08-04T09:32:09.147Z,34.70
2022-08-04T09:34:41.589Z,35.00
2022-08-04T09:37:15.026Z,35.40
2022-08-04T09:39:52.098Z,35.60
2022-08-04T09:42:26.098Z,36.10
2022-08-04T09:45:06.655Z,36.00
2022-08-04T09:47:39.361Z,35.90
2022-08-04T09:50:23.245Z,36.00
2022-08-04T09:52:57.392Z,36.00
2022-08-04T09:55:32.370Z,36.30
2022-08-04T09:58:04.924Z,36.70
2022-08-04T10:00:40.832Z,36.80
2022-08-04T10:03:14.726Z,37.10
2022-08-04T10:05:49.752Z,37.30
2022-08-04T10:08:30.395Z,37.20
2022-08-04T10:11:04.766Z,37.30
2022-08-04T10:13:39.342Z,37.70
2022-08-04T10:16:19.719Z,37.90
2022-08-04T10:18:51.833Z,38.00
2022-08-04T10:21:24.201Z,38.00
2022-08-04T10:24:08.432Z,38.00
2022-08-04T10:26:40.232Z,38.20
2022-08-04T10:29:10.816Z,38.50
2022-08-04T10:31:43.680Z,38.70
2022-08-04T10:34:13.917Z,38.30
2022-08-04T10:36:45.494Z,38.50
2022-08-04T10:39:42.776Z,38.80
2022-08-04T10:42:08.016Z,39.20
2022-08-04T10:44:41.812Z,39.60
2022-08-04T10:47:15.023Z,40.00
2022-08-04T10:49:45.723Z,39.60
2022-08-04T10:52:19.044Z,39.50
2022-08-04T10:54:52.563Z,39.40
2022-08-04T10:57:22.058Z,39.40
2022-08-04T10:59:53.559Z,39.20
2022-08-04T11:02:35.054Z,39.10
2022-08-04T11:05:11.931Z,39.00
2022-08-04T11:07:42.173Z,39.30
2022-08-04T11:10:11.434Z,39.70
2022-08-04T11:12:39.458Z,40.00
2022-08-04T11:15:10.211Z,40.30
2022-08-04T11:17:41.654Z,40.70
2022-08-04T11:20:34.197Z,40.90
2022-08-04T11:23:05.000Z,41.00
2022-08-04T11:25:37.677Z,41.10
2022-08-04T11:28:10.309Z,41.00
2022-08-04T11:30:41.703Z,40.90
2022-08-04T11:33:14.406Z,41.40
2022-08-04T11:35:45.552Z,41.70
2022-08-04T11:38:16.238Z,41.70
2022-08-04T11:40:55.725Z,41.60
2022-08-04T11:43:56.439Z,42.00
2022-08-04T11:46:25.660Z,41.80
2022-08-04T11:48:57.316Z,41.30
2022-08-04T11:51:27.790Z,41.30
2022-08-04T11:53:56.694Z,41.40
2022-08-04T11:56:35.933Z,41.60
2022-08-04T11:59:07.504Z,41.80
2022-08-04T12:01:36.815Z,42.10
2022-08-04T12:04:06.563Z,42.00
2022-08-04T12:06:56.740Z,41.50
2022-08-04T12:09:30.652Z,41.50
2022-08-04T12:12:04.026Z,41.70
2022-08-04T12:14:39.527Z,42.00
2022-08-04T12:17:08.534Z,42.50
2022-08-04T12:20:03.491Z,42.50
2022-08-04T12:22:31.358Z,42.40
2022-08-04T12:25:02.223Z,42.60
2022-08-04T12:27:33.886Z,42.60
2022-08-04T12:30:59.776Z,43.00
2022-08-04T12:32:54.581Z,43.20
2022-08-04T12:35:26.388Z,42.50
2022-08-04T12:37:59.450Z,42.70
2022-08-04T12:40:31.186Z,42.70
2022-08-04T12:43:03.878Z,42.30
2022-08-04T12:45:32.068Z,41.90
2022-08-04T12:48:00.742Z,41.80
2022-08-04T12:50:28.976Z,42.20
2022-08-04T12:53:02.701Z,42.60
2022-08-04T12:55:33.270Z,42.90
2022-08-04T12:58:02.616Z,43.10
2022-08-04T13:00:38.263Z,43.10
2022-08-04T13:03:10.872Z,43.30
2022-08-04T13:05:40.000Z,42.50
2022-08-04T13:08:08.705Z,42.30
2022-08-04T13:10:38.523Z,41.80
2022-08-04T13:13:12.596Z,41.70
2022-08-04T13:15:47.716Z,41.90
2022-08-04T13:18:29.626Z,41.70
2022-08-04T13:21:20.346Z,41.50
2022-08-04T13:24:09.534Z,41.20
2022-08-04T13:26:44.848Z,40.70
2022-08-04T13:30:00.507Z,40.70
2022-08-04T13:32:16.250Z,40.50
2022-08-04T13:34:48.881Z,40.70
2022-08-04T13:37:20.897Z,40.70
2022-08-04T13:39:55.666Z,40.40
2022-08-04T13:42:25.063Z,40.40
2022-08-04T13:44:56.874Z,40.50
2022-08-04T13:47:28.042Z,41.20
2022-08-04T13:50:12.143Z,41.50
2022-08-04T13:52:40.747Z,42.10
2022-08-04T13:55:08.829Z,42.70
2022-08-04T13:57:37.597Z,42.90
2022-08-04T14:00:08.909Z,43.00
2022-08-04T14:02:40.179Z,42.60
2022-08-04T14:05:18.337Z,42.90
2022-08-04T14:07:47.851Z,43.10
2022-08-04T14:10:16.122Z,43.20
2022-08-04T14:12:47.003Z,43.60
2022-08-04T14:16:01.873Z,44.00
2022-08-04T14:18:21.824Z,44.10
2022-08-04T14:20:59.615Z,44.00
2022-08-04T14:23:31.801Z,43.80
2022-08-04T14:26:01.668Z,43.70
2022-08-04T14:29:00.027Z,43.60
2022-08-04T14:31:19.566Z,43.80
2022-08-04T14:34:02.281Z,44.00
2022-08-04T14:36:41.820Z,44.10
2022-08-04T14:39:37.387Z,44.10
2022-08-04T14:42:05.410Z,44.00
2022-08-04T14:44:33.158Z,43.60
2022-08-04T14:47:02.220Z,43.20
2022-08-04T14:49:29.959Z,42.50
2022-08-04T14:51:59.031Z,42.00
2022-08-04T14:54:28.507Z,41.80
2022-08-04T14:56:58.360Z,41.50
2022-08-04T14:59:26.229Z,41.40
2022-08-04T15:02:00.549Z,41.80
2022-08-04T15:04:31.231Z,41.90
2022-08-04T15:06:59.312Z,42.00
2022-08-04T15:09:27.237Z,42.20
2022-08-04T15:11:55.119Z,42.40
2022-08-04T15:14:36.411Z,42.20
2022-08-04T15:17:12.119Z,42.10
2022-08-04T15:19:56.385Z,42.30
2022-08-04T15:22:24.301Z,42.10
2022-08-04T15:24:55.048Z,42.20
2022-08-04T15:27:25.056Z,42.10
2022-08-04T15:30:00.856Z,42.00
2022-08-04T15:32:30.670Z,42.20
2022-08-04T15:35:04.323Z,42.20
2022-08-04T15:37:37.811Z,42.00
2022-08-04T15:40:09.956Z,41.70
2022-08-04T15:42:42.050Z,41.40
2022-08-04T15:45:19.899Z,41.40
2022-08-04T15:48:06.494Z,41.50
2022-08-04T15:50:35.579Z,41.50
2022-08-04T15:53:10.264Z,41.30
2022-08-04T15:55:40.646Z,40.80
2022-08-04T15:58:09.359Z,40.30
2022-08-04T16:00:53.997Z,39.90
2022-08-04T16:03:53.166Z,39.80
2022-08-04T16:06:45.129Z,39.80
2022-08-04T16:09:22.099Z,39.70
2022-08-04T16:11:49.834Z,39.70
2022-08-04T16:14:17.690Z,39.80
2022-08-04T16:16:49.867Z,39.80
2022-08-04T16:19:26.889Z,39.80
2022-08-04T16:22:05.274Z,39.70
2022-08-04T16:24:36.518Z,39.60
2022-08-04T16:27:04.850Z,39.80
2022-08-04T16:29:34.503Z,39.70
2022-08-04T16:32:23.436Z,39.40
2022-08-04T16:34:56.946Z,39.20
2022-08-04T16:37:30.937Z,39.00
2022-08-04T16:40:17.771Z,39.00
2022-08-04T16:42:46.089Z,38.90
2022-08-04T16:45:14.119Z,38.50
2022-08-04T16:48:00.657Z,38.30
2022-08-04T16:50:29.636Z,38.20
2022-08-04T16:52:58.732Z,37.90
2022-08-04T16:55:27.723Z,37.80
2022-08-04T16:57:56.177Z,37.50
2022-08-04T17:00:31.572Z,37.50
2022-08-04T17:02:59.313Z,37.30
2022-08-04T17:05:38.348Z,37.30
2022-08-04T17:10:57.172Z,37.30
2022-08-04T17:14:03.635Z,37.20
2022-08-04T17:16:18.779Z,37.10
2022-08-04T17:18:47.424Z,37.00
2022-08-04T17:21:16.647Z,36.90
2022-08-04T17:24:12.947Z,36.80
2022-08-04T17:26:39.507Z,36.70
2022-08-04T17:29:08.997Z,36.70
2022-08-04T17:31:38.389Z,36.60
2022-08-04T17:34:15.755Z,36.60
2022-08-04T17:36:44.075Z,36.50
2022-08-04T17:39:16.938Z,36.50
2022-08-04T17:41:48.691Z,36.50
2022-08-04T17:44:17.619Z,36.30
2022-08-04T17:46:48.085Z,36.20
2022-08-04T17:49:22.619Z,36.00
2022-08-04T17:52:06.564Z,35.80
2022-08-04T17:54:40.521Z,35.60
2022-08-04T17:57:15.634Z,35.40
2022-08-04T17:59:55.884Z,35.20
2022-08-04T18:02:32.227Z,34.90
2022-08-04T18:05:07.067Z,34.60
2022-08-04T18:08:46.052Z,34.30
2022-08-04T18:10:52.624Z,34.10
2022-08-04T18:13:25.094Z,33.90
2022-08-04T18:16:02.472Z,33.80
2022-08-04T18:18:30.610Z,33.60
2022-08-04T18:21:02.684Z,33.50
2022-08-04T18:23:32.600Z,33.40
2022-08-04T18:26:03.659Z,33.30
2022-08-04T18:28:33.584Z,33.20
2022-08-04T18:31:01.952Z,33.20
2022-08-04T18:33:40.743Z,33.00
2022-08-04T18:36:33.471Z,33.00
2022-08-04T18:39:11.982Z,32.80
2022-08-04T18:42:00.941Z,32.70
2022-08-04T18:44:31.221Z,32.70
2022-08-04T18:47:19.411Z,32.60
2022-08-04T18:50:59.578Z,32.50
2022-08-04T18:52:35.303Z,32.40
2022-08-04T18:55:10.196Z,32.40
2022-08-04T18:57:59.388Z,32.30
2022-08-04T19:00:28.959Z,32.20
2022-08-04T19:02:57.343Z,32.20
2022-08-04T19:05:25.115Z,32.10
2022-08-04T19:08:32.531Z,32.00
2022-08-04T19:10:54.399Z,31.90
2022-08-04T19:13:34.617Z,31.90
2022-08-04T19:16:03.000Z,31.80
2022-08-04T19:18:32.316Z,31.70
2022-08-04T19:21:05.315Z,31.70
2022-08-04T19:24:11.514Z,31.70
2022-08-04T19:26:28.045Z,31.60
2022-08-04T19:28:57.734Z,31.60
2022-08-04T19:31:39.997Z,31.50
2022-08-04T19:34:08.375Z,31.50
2022-08-04T19:36:36.790Z,31.40
2022-08-04T19:42:04.331Z,31.30
2022-08-04T19:44:34.047Z,31.20
2022-08-04T19:47:02.456Z,31.10
2022-08-04T19:50:05.431Z,31.10
2022-08-04T19:52:38.149Z,31.10
2022-08-04T19:55:09.916Z,30.90
2022-08-04T19:57:43.925Z,30.90
2022-08-04T20:00:17.699Z,30.80
2022-08-04T20:03:02.683Z,30.80
2022-08-04T20:05:54.294Z,30.70
2022-08-04T20:08:18.578Z,30.70
2022-08-04T20:10:47.002Z,30.60
2022-08-04T20:13:19.422Z,30.50
2022-08-04T20:15:55.431Z,30.50
2022-08-04T20:18:36.061Z,30.40
2022-08-04T20:21:11.336Z,30.40
2022-08-04T20:23:50.059Z,30.40
2022-08-04T20:26:18.013Z,30.30
2022-08-04T20:28:46.224Z,30.30
2022-08-04T20:31:21.615Z,30.20
2022-08-04T20:33:53.713Z,30.30
2022-08-04T20:36:23.183Z,30.10
2022-08-04T20:38:52.728Z,30.00
2022-08-04T20:41:21.108Z,29.90
2022-08-04T20:43:49.654Z,29.70
2022-08-04T20:46:29.354Z,29.80
2022-08-04T20:48:59.046Z,29.70
2022-08-04T20:51:32.161Z,29.70
2022-08-04T20:54:01.907Z,29.70
2022-08-04T20:56:30.982Z,29.60
2022-08-04T20:58:59.541Z,29.60
2022-08-04T21:01:29.808Z,29.40
2022-08-04T21:04:28.055Z,29.40
2022-08-04T21:06:57.287Z,29.30
2022-08-04T21:09:36.925Z,29.30
2022-08-04T21:12:06.994Z,29.30
2022-08-04T21:14:34.900Z,29.30
2022-08-04T21:17:04.131Z,29.20
2022-08-04T21:19:37.911Z,29.30
2022-08-04T21:22:10.443Z,29.30
2022-08-04T21:24:40.228Z,29.40
2022-08-04T21:27:16.350Z,29.30
2022-08-04T21:29:45.294Z,29.30
2022-08-04T21:32:13.896Z,29.20
2022-08-04T21:34:43.034Z,29.20
2022-08-04T21:37:12.682Z,29.10
2022-08-04T21:39:50.308Z,29.10
2022-08-04T21:42:42.192Z,29.10
2022-08-04T21:45:11.187Z,29.10
2022-08-04T21:47:49.122Z,29.00
2022-08-04T21:50:19.952Z,29.00
2022-08-04T21:52:48.400Z,28.90
2022-08-04T21:55:16.878Z,28.90
2022-08-04T21:57:46.737Z,28.80
2022-08-04T22:00:19.538Z,28.70
2022-08-04T22:02:53.268Z,28.70
2022-08-04T22:05:22.920Z,28.60
2022-08-04T22:07:51.664Z,28.60
2022-08-04T22:10:32.182Z,28.60
2022-08-04T22:13:07.054Z,28.50
2022-08-04T22:16:03.651Z,28.40
2022-08-04T22:18:24.448Z,28.40
2022-08-04T22:20:56.339Z,28.30
2022-08-04T22:23:25.473Z,28.20
2022-08-04T22:25:53.685Z,28.20
2022-08-04T22:28:27.098Z,28.10
2022-08-04T22:30:56.576Z,28.10
2022-08-04T22:33:53.847Z,28.00
2022-08-04T22:36:14.480Z,28.00
2022-08-04T22:38:50.368Z,27.80
2022-08-04T22:41:21.166Z,27.80
2022-08-04T22:43:54.865Z,27.70
2022-08-04T22:46:23.955Z,27.70
2022-08-04T22:48:52.769Z,27.60
2022-08-04T22:51:22.544Z,27.50
2022-08-04T22:53:54.672Z,27.40
2022-08-04T22:56:37.760Z,27.30
2022-08-04T22:59:06.616Z,27.20
2022-08-04T23:02:00.012Z,27.10
2022-08-04T23:04:25.681Z,27.10
2022-08-04T23:06:55.554Z,27.00
2022-08-04T23:09:48.916Z,27.00
2022-08-04T23:12:27.270Z,26.90
2022-08-04T23:14:56.380Z,26.80
2022-08-04T23:17:25.264Z,26.70
2022-08-04T23:19:58.208Z,26.80
2022-08-04T23:22:41.343Z,26.70
2022-08-04T23:25:16.034Z,26.60
2022-08-04T23:27:48.245Z,26.60
2022-08-04T23:30:20.879Z,26.50
2022-08-04T23:32:49.856Z,26.40
2022-08-04T23:35:19.087Z,26.40
2022-08-04T23:37:57.904Z,26.30
2022-08-04T23:40:33.415Z,26.20
2022-08-04T23:43:17.083Z,26.20
2022-08-04T23:46:03.613Z,26.10
2022-08-04T23:48:34.207Z,26.10
2022-08-04T23:51:03.831Z,26.00
2022-08-04T23:54:01.841Z,25.90
2022-08-04T23:56:31.958Z,25.90
2022-08-04T23:59:00.303Z,25.80
